createdAt,value
2023-06-21T00:01:20.372Z,41.00
2023-06-21T00:03:46.761Z,42.42
2023-06-21T00:06:14.309Z,42.65
2023-06-21T00:08:40.661Z,47.72
2023-06-21T00:11:07.014Z,39.90
2023-06-21T00:13:33.332Z,34.40
2023-06-21T00:15:59.667Z,34.13
2023-06-21T00:18:26.079Z,32.47
2023-06-21T00:20:52.428Z,35.80
2023-06-21T00:23:19.134Z,30.63
2023-06-21T00:25:45.477Z,36.65
2023-06-21T00:28:11.886Z,33.08
2023-06-21T00:30:38.218Z,31.20
2023-06-21T00:33:05.501Z,30.73
2023-06-21T00:35:32.236Z,32.78
2023-06-21T00:37:59.962Z,30.90
2023-06-21T00:40:35.681Z,31.83
2023-06-21T00:43:04.987Z,31.10
2023-06-21T00:45:34.764Z,32.80
2023-06-21T00:48:01.165Z,34.30
2023-06-21T00:50:27.842Z,30.38
2023-06-21T00:52:56.515Z,30.98
2023-06-21T00:55:24.475Z,30.02
2023-06-21T00:57:51.587Z,32.75
2023-06-21T01:00:24.597Z,31.08
2023-06-21T01:02:52.254Z,31.63
2023-06-21T01:05:19.027Z,30.13
2023-06-21T01:07:48.465Z,34.55
2023-06-21T01:10:20.900Z,30.60
2023-06-21T01:12:47.790Z,35.38
2023-06-21T01:15:18.630Z,32.88
2023-06-21T01:17:45.954Z,31.67
2023-06-21T01:20:19.397Z,34.25
2023-06-21T01:23:07.885Z,33.85
2023-06-21T01:25:46.914Z,35.13
2023-06-21T01:28:32.199Z,31.55
2023-06-21T01:30:59.563Z,32.85
2023-06-21T01:33:29.089Z,32.35
2023-06-21T01:35:55.771Z,32.72
2023-06-21T01:38:23.083Z,41.53
2023-06-21T01:40:49.480Z,44.70
2023-06-21T01:43:15.889Z,36.70
2023-06-21T01:45:42.265Z,39.58
2023-06-21T01:48:09.292Z,39.55
2023-06-21T01:50:36.923Z,38.53
2023-06-21T01:53:05.925Z,44.00
2023-06-21T01:55:32.379Z,41.00
2023-06-21T01:57:58.785Z,41.25
2023-06-21T02:00:26.952Z,43.33
2023-06-21T02:02:54.609Z,44.78
2023-06-21T02:05:21.749Z,40.50
2023-06-21T02:07:48.705Z,50.60
2023-06-21T02:10:15.449Z,44.33
2023-06-21T02:12:42.767Z,40.78
2023-06-21T02:15:09.699Z,42.15
2023-06-21T02:17:36.061Z,46.67
2023-06-21T02:20:14.500Z,39.33
2023-06-21T02:22:41.720Z,45.00
2023-06-21T02:25:08.863Z,45.03
2023-06-21T02:27:35.335Z,45.28
2023-06-21T02:30:01.929Z,48.60
2023-06-21T02:32:28.442Z,47.42
2023-06-21T02:34:54.716Z,54.22
2023-06-21T02:37:21.139Z,54.88
2023-06-21T02:39:47.479Z,55.95
2023-06-21T02:42:13.913Z,53.70
2023-06-21T02:44:40.191Z,56.63
2023-06-21T02:47:06.569Z,59.65
2023-06-21T02:49:37.422Z,62.20
2023-06-21T02:52:04.290Z,63.83
2023-06-21T02:54:30.929Z,64.72
2023-06-21T02:56:57.482Z,63.83
2023-06-21T02:59:23.764Z,64.68
2023-06-21T03:01:50.223Z,69.97
2023-06-21T03:04:17.213Z,68.15
2023-06-21T03:06:43.921Z,73.30
2023-06-21T03:09:10.258Z,71.57
2023-06-21T03:11:36.609Z,69.35
2023-06-21T03:14:02.902Z,73.57
2023-06-21T03:16:29.174Z,74.78
2023-06-21T03:18:55.504Z,66.28
2023-06-21T03:21:23.708Z,71.55
2023-06-21T03:23:50.636Z,63.20
2023-06-21T03:26:17.007Z,66.05
2023-06-21T03:28:43.465Z,66.18
2023-06-21T03:31:09.765Z,71.22
2023-06-21T03:33:36.193Z,72.28
2023-06-21T03:36:04.567Z,70.68
2023-06-21T03:38:31.159Z,73.72
2023-06-21T03:40:58.740Z,73.78
2023-06-21T03:43:26.011Z,80.70
2023-06-21T03:45:52.438Z,74.28
2023-06-21T03:48:18.833Z,70.05
2023-06-21T03:50:45.208Z,72.80
2023-06-21T03:53:11.616Z,80.38
2023-06-21T03:55:38.365Z,75.40
2023-06-21T03:58:04.780Z,67.05
2023-06-21T04:00:31.258Z,70.60
2023-06-21T04:02:57.744Z,75.15
2023-06-21T04:05:24.130Z,77.10
2023-06-21T04:07:50.574Z,73.68
2023-06-21T04:10:17.689Z,71.05
2023-06-21T04:12:44.160Z,72.65
2023-06-21T04:15:10.838Z,70.25
2023-06-21T04:17:37.599Z,55.72
2023-06-21T04:20:11.175Z,47.00
2023-06-21T04:22:42.099Z,54.40
2023-06-21T04:25:11.475Z,59.33
2023-06-21T04:27:41.266Z,58.92
2023-06-21T04:30:10.935Z,62.40
2023-06-21T04:32:45.780Z,59.38
2023-06-21T04:35:15.247Z,66.45
2023-06-21T04:37:46.308Z,63.17
2023-06-21T04:40:17.457Z,57.90
2023-06-21T04:42:45.711Z,65.43
2023-06-21T04:45:12.696Z,60.75
2023-06-21T04:47:39.185Z,57.35
2023-06-21T04:50:20.234Z,56.03
2023-06-21T04:52:50.564Z,63.13
2023-06-21T04:55:20.325Z,57.13
2023-06-21T04:57:47.677Z,67.03
2023-06-21T05:00:15.210Z,51.13
2023-06-21T05:02:41.699Z,60.92
2023-06-21T05:05:08.204Z,54.70
2023-06-21T05:07:34.583Z,58.67
2023-06-21T05:10:00.880Z,54.45
2023-06-21T05:12:27.299Z,53.65
2023-06-21T05:14:53.638Z,53.47
2023-06-21T05:17:20.185Z,54.53
2023-06-21T05:19:46.606Z,57.25
2023-06-21T05:22:13.984Z,51.63
2023-06-21T05:24:40.439Z,57.30
2023-06-21T05:27:07.150Z,51.45
2023-06-21T05:29:35.754Z,55.10
2023-06-21T05:32:02.279Z,47.10
2023-06-21T05:34:29.727Z,52.70
2023-06-21T05:36:56.116Z,46.22
2023-06-21T05:39:22.466Z,48.17
2023-06-21T05:41:50.054Z,53.25
2023-06-21T05:44:16.451Z,42.33
2023-06-21T05:46:42.996Z,45.08
2023-06-21T05:49:09.511Z,40.35
2023-06-21T05:51:36.166Z,47.70
2023-06-21T05:54:02.460Z,37.60
2023-06-21T05:56:30.046Z,37.95
2023-06-21T05:58:56.344Z,35.35
2023-06-21T06:01:25.204Z,33.42
2023-06-21T06:03:52.168Z,31.77
2023-06-21T06:06:18.854Z,34.75
2023-06-21T06:08:45.189Z,31.10
2023-06-21T06:11:11.503Z,29.42
2023-06-21T06:13:37.818Z,29.95
2023-06-21T06:16:04.226Z,29.20
2023-06-21T06:18:30.513Z,25.98
2023-06-21T06:20:58.816Z,25.10
2023-06-21T06:23:25.087Z,23.10
2023-06-21T06:25:52.400Z,30.38
2023-06-21T06:28:20.291Z,28.73
2023-06-21T06:30:46.596Z,23.33
2023-06-21T06:33:12.960Z,28.83
2023-06-21T06:35:40.135Z,27.65
2023-06-21T06:38:06.493Z,27.13
2023-06-21T06:40:34.555Z,24.90
2023-06-21T06:43:00.992Z,26.77
2023-06-21T06:45:27.304Z,28.63
2023-06-21T06:47:54.708Z,27.77
2023-06-21T06:50:21.047Z,23.75
2023-06-21T06:52:49.317Z,24.48
2023-06-21T06:55:15.855Z,22.20
2023-06-21T06:57:49.462Z,21.67
2023-06-21T07:00:26.865Z,20.75
2023-06-21T07:02:57.673Z,19.88
2023-06-21T07:05:24.889Z,15.77
2023-06-21T07:07:51.684Z,16.30
2023-06-21T07:10:20.350Z,14.65
2023-06-21T07:12:47.046Z,18.67
2023-06-21T07:15:13.398Z,15.35
2023-06-21T07:17:39.709Z,16.98
2023-06-21T07:20:09.332Z,10.98
2023-06-21T07:22:36.383Z,14.05
2023-06-21T07:25:02.677Z,11.85
2023-06-21T07:27:29.114Z,11.55
2023-06-21T07:29:55.502Z,8.05
2023-06-21T07:32:21.904Z,9.85
2023-06-21T07:34:49.565Z,12.10
2023-06-21T07:37:16.084Z,8.85
2023-06-21T07:39:53.756Z,9.32
2023-06-21T07:42:21.085Z,9.93
2023-06-21T07:44:47.439Z,9.32
2023-06-21T07:47:13.893Z,11.20
2023-06-21T07:49:40.254Z,8.90
2023-06-21T07:52:06.691Z,12.82
2023-06-21T07:54:32.953Z,6.57
2023-06-21T07:56:59.290Z,8.55
2023-06-21T07:59:25.598Z,8.55
2023-06-21T08:01:51.908Z,9.27
2023-06-21T08:04:18.644Z,7.07
2023-06-21T08:06:44.936Z,6.82
2023-06-21T08:09:11.253Z,10.25
2023-06-21T08:11:37.550Z,7.10
2023-06-21T08:14:03.947Z,12.05
2023-06-21T08:16:30.228Z,8.55
2023-06-21T08:18:56.566Z,8.52
2023-06-21T08:21:22.916Z,7.05
2023-06-21T08:23:49.178Z,8.52
2023-06-21T08:26:15.509Z,10.57
2023-06-21T08:28:42.434Z,9.63
2023-06-21T08:31:08.872Z,11.00
2023-06-21T08:33:35.257Z,8.13
2023-06-21T08:36:01.668Z,9.57
2023-06-21T08:38:28.992Z,10.00
2023-06-21T08:40:58.464Z,7.95
2023-06-21T08:43:24.747Z,9.57
2023-06-21T08:45:52.085Z,11.38
2023-06-21T08:48:19.543Z,12.20
2023-06-21T08:50:45.890Z,6.32
2023-06-21T08:53:13.787Z,5.82
2023-06-21T08:55:42.819Z,5.10
2023-06-21T08:58:13.371Z,4.20
2023-06-21T09:00:42.730Z,7.50
2023-06-21T09:03:15.468Z,5.20
2023-06-21T09:05:54.557Z,4.68
2023-06-21T09:08:20.915Z,3.03
2023-06-21T09:10:49.842Z,2.47
2023-06-21T09:13:16.502Z,1.52
2023-06-21T09:15:43.032Z,3.13
2023-06-21T09:18:09.989Z,2.25
2023-06-21T09:20:37.411Z,2.38
2023-06-21T09:23:03.837Z,3.10
2023-06-21T09:25:30.493Z,2.72
2023-06-21T09:27:57.097Z,2.15
2023-06-21T09:30:37.418Z,4.10
2023-06-21T09:33:05.522Z,2.00
2023-06-21T09:35:32.793Z,1.40
2023-06-21T09:37:59.130Z,1.10
2023-06-21T09:40:25.443Z,2.00
2023-06-21T09:42:51.870Z,5.75
2023-06-21T09:45:19.084Z,2.00
2023-06-21T09:47:45.702Z,3.38
2023-06-21T09:50:12.692Z,1.60
2023-06-21T09:52:45.794Z,2.15
2023-06-21T09:55:15.937Z,1.85
2023-06-21T09:57:42.379Z,4.95
2023-06-21T10:00:09.273Z,3.25
2023-06-21T10:02:40.156Z,6.07
2023-06-21T10:05:07.634Z,2.38
2023-06-21T10:07:42.863Z,2.15
2023-06-21T10:10:09.440Z,2.08
2023-06-21T10:12:35.781Z,2.08
2023-06-21T10:15:02.136Z,5.53
2023-06-21T10:17:29.429Z,2.67
2023-06-21T10:19:56.620Z,2.03
2023-06-21T10:22:23.009Z,1.70
2023-06-21T10:24:50.904Z,3.38
2023-06-21T10:27:17.993Z,3.83
2023-06-21T10:29:44.948Z,3.63
2023-06-21T10:32:11.767Z,2.25
2023-06-21T10:34:56.943Z,3.00
2023-06-21T10:37:29.571Z,1.52
2023-06-21T10:40:09.419Z,1.67
2023-06-21T10:42:38.819Z,2.13
2023-06-21T10:45:05.719Z,1.58
2023-06-21T10:47:32.417Z,3.85
2023-06-21T10:50:00.082Z,1.73
2023-06-21T10:52:27.395Z,1.45
2023-06-21T10:54:56.930Z,5.15
2023-06-21T10:57:24.839Z,2.65
2023-06-21T10:59:51.663Z,1.52
2023-06-21T11:02:18.035Z,1.90
2023-06-21T11:05:03.254Z,3.10
2023-06-21T11:07:29.549Z,2.05
2023-06-21T11:09:56.466Z,5.95
2023-06-21T11:12:25.679Z,2.20
2023-06-21T11:14:52.471Z,3.37
2023-06-21T11:17:25.203Z,2.13
2023-06-21T11:19:51.602Z,2.10
2023-06-21T11:22:19.006Z,6.15
2023-06-21T11:24:58.601Z,5.20
2023-06-21T11:27:26.695Z,3.88
2023-06-21T11:29:56.886Z,4.18
2023-06-21T11:32:23.381Z,2.17
2023-06-21T11:34:54.927Z,2.65
2023-06-21T11:37:36.654Z,1.92
2023-06-21T11:40:04.555Z,3.10
2023-06-21T11:42:35.760Z,1.83
2023-06-21T11:45:21.456Z,3.55
2023-06-21T11:48:01.219Z,2.15
2023-06-21T11:50:47.645Z,5.80
2023-06-21T11:53:29.406Z,2.13
2023-06-21T11:56:01.082Z,4.03
2023-06-21T11:58:27.754Z,6.45
2023-06-21T12:00:55.130Z,3.55
2023-06-21T12:03:28.502Z,2.65
2023-06-21T12:05:56.995Z,1.70
2023-06-21T12:08:24.254Z,3.38
2023-06-21T12:10:50.645Z,4.78
2023-06-21T12:13:20.631Z,3.97
2023-06-21T12:15:57.235Z,3.10
2023-06-21T12:18:24.643Z,1.92
2023-06-21T12:20:53.826Z,8.13
2023-06-21T12:23:21.597Z,2.30
2023-06-21T12:25:50.084Z,3.30
2023-06-21T12:28:17.678Z,2.33
2023-06-21T12:30:47.196Z,1.63
2023-06-21T12:33:13.649Z,3.33
2023-06-21T12:35:40.262Z,2.95
2023-06-21T12:38:16.475Z,2.00
2023-06-21T12:40:52.703Z,1.55
2023-06-21T12:43:38.560Z,3.42
2023-06-21T12:46:05.703Z,3.53
2023-06-21T12:48:32.443Z,2.40
2023-06-21T12:50:58.870Z,3.20
2023-06-21T12:53:32.503Z,3.28
2023-06-21T12:56:11.659Z,3.80
2023-06-21T12:58:38.453Z,2.10
2023-06-21T13:01:05.700Z,1.48
2023-06-21T13:03:32.495Z,2.97
2023-06-21T13:05:59.339Z,7.80
2023-06-21T13:08:26.240Z,5.82
2023-06-21T13:10:54.982Z,2.45
2023-06-21T13:13:21.312Z,5.47
2023-06-21T13:15:47.623Z,3.03
2023-06-21T13:18:13.997Z,7.82
2023-06-21T13:20:40.310Z,3.95
2023-06-21T13:23:06.700Z,2.30
2023-06-21T13:25:33.021Z,3.25
2023-06-21T13:27:59.298Z,4.25
2023-06-21T13:30:26.065Z,2.92
2023-06-21T13:32:52.741Z,2.30
2023-06-21T13:35:19.334Z,2.70
2023-06-21T13:37:46.660Z,2.05
2023-06-21T13:40:13.262Z,9.27
2023-06-21T13:42:39.678Z,2.55
2023-06-21T13:45:06.264Z,8.02
2023-06-21T13:47:32.617Z,4.45
2023-06-21T13:50:01.446Z,2.50
2023-06-21T13:52:32.679Z,2.25
2023-06-21T13:54:59.178Z,4.68
2023-06-21T13:57:25.523Z,2.70
2023-06-21T13:59:51.989Z,7.15
2023-06-21T14:02:18.382Z,3.38
2023-06-21T14:04:45.669Z,3.50
2023-06-21T14:07:12.296Z,3.42
2023-06-21T14:09:41.946Z,5.03
2023-06-21T14:12:08.539Z,3.85
2023-06-21T14:14:34.893Z,2.28
2023-06-21T14:17:01.273Z,2.55
2023-06-21T14:19:27.585Z,4.47
2023-06-21T14:21:53.876Z,2.85
2023-06-21T14:24:20.202Z,8.00
2023-06-21T14:26:47.716Z,1.40
2023-06-21T14:29:14.062Z,1.42
2023-06-21T14:31:40.404Z,2.28
2023-06-21T14:34:06.781Z,2.08
2023-06-21T14:36:33.148Z,2.30
2023-06-21T14:38:59.874Z,2.47
2023-06-21T14:41:26.186Z,2.70
2023-06-21T14:43:52.636Z,9.57
2023-06-21T14:46:18.947Z,3.80
2023-06-21T14:48:45.245Z,3.15
2023-06-21T14:51:15.465Z,5.40
2023-06-21T14:53:42.027Z,5.28
2023-06-21T14:56:08.910Z,2.90
2023-06-21T14:58:35.846Z,3.97
2023-06-21T15:01:02.207Z,2.10
2023-06-21T15:03:28.699Z,3.05
2023-06-21T15:06:04.875Z,3.05
2023-06-21T15:08:33.404Z,3.13
2023-06-21T15:10:59.692Z,4.57
2023-06-21T15:13:26.095Z,3.17
2023-06-21T15:15:53.703Z,3.78
2023-06-21T15:18:20.136Z,2.65
2023-06-21T15:20:46.519Z,2.17
2023-06-21T15:23:12.839Z,2.78
2023-06-21T15:25:39.156Z,3.88
2023-06-21T15:28:05.399Z,3.80
2023-06-21T15:30:31.806Z,3.15
2023-06-21T15:32:58.394Z,3.33
2023-06-21T15:35:24.819Z,4.47
2023-06-21T15:37:51.226Z,6.47
2023-06-21T15:40:17.544Z,3.80
2023-06-21T15:42:43.910Z,2.60
2023-06-21T15:45:10.482Z,2.58
2023-06-21T15:47:38.022Z,2.40
2023-06-21T15:50:07.410Z,2.40
2023-06-21T15:52:34.933Z,2.55
2023-06-21T15:55:02.498Z,2.28
2023-06-21T15:57:29.864Z,2.15
2023-06-21T15:59:56.190Z,2.30
2023-06-21T16:02:25.744Z,2.38
2023-06-21T16:04:52.253Z,1.90
2023-06-21T16:07:18.539Z,4.43
2023-06-21T16:09:44.832Z,1.90
2023-06-21T16:12:13.176Z,2.38
2023-06-21T16:14:39.538Z,1.38
2023-06-21T16:17:06.911Z,2.10
2023-06-21T16:19:33.208Z,2.45
2023-06-21T16:22:00.518Z,1.30
2023-06-21T16:24:26.773Z,1.55
2023-06-21T16:26:54.572Z,1.38
2023-06-21T16:29:22.943Z,2.30
2023-06-21T16:31:49.846Z,2.35
2023-06-21T16:34:16.148Z,1.25
2023-06-21T16:36:42.499Z,2.15
2023-06-21T16:39:08.888Z,1.27
2023-06-21T16:41:35.256Z,1.08
2023-06-21T16:44:01.614Z,3.50
2023-06-21T16:46:29.045Z,1.38
2023-06-21T16:48:55.625Z,1.33
2023-06-21T16:51:25.499Z,1.75
2023-06-21T16:53:52.074Z,2.58
2023-06-21T16:56:24.141Z,4.32
2023-06-21T16:58:51.038Z,2.00
2023-06-21T17:01:17.546Z,3.60
2023-06-21T17:03:44.152Z,2.50
2023-06-21T17:06:10.865Z,3.65
2023-06-21T17:08:37.166Z,3.78
2023-06-21T17:11:03.434Z,3.30
2023-06-21T17:13:30.864Z,2.22
2023-06-21T17:15:59.270Z,1.40
2023-06-21T17:18:25.578Z,3.70
2023-06-21T17:20:51.910Z,2.28
2023-06-21T17:23:18.287Z,4.13
2023-06-21T17:25:44.742Z,3.80
2023-06-21T17:28:11.046Z,1.52
2023-06-21T17:30:37.452Z,5.13
2023-06-21T17:33:04.289Z,2.20
2023-06-21T17:35:31.031Z,2.53
2023-06-21T17:37:57.652Z,1.98
2023-06-21T17:40:24.000Z,1.80
2023-06-21T17:42:51.317Z,3.45
2023-06-21T17:45:17.625Z,3.88
2023-06-21T17:47:44.064Z,1.77
2023-06-21T17:50:11.398Z,6.28
2023-06-21T17:52:37.741Z,2.35
2023-06-21T17:55:04.174Z,2.42
2023-06-21T17:57:30.521Z,2.25
2023-06-21T17:59:56.924Z,4.68
2023-06-21T18:02:23.315Z,2.78
2023-06-21T18:04:49.774Z,1.48
2023-06-21T18:07:16.165Z,1.25
2023-06-21T18:09:42.586Z,3.35
2023-06-21T18:12:10.766Z,2.13
2023-06-21T18:14:37.421Z,3.92
2023-06-21T18:17:03.944Z,2.03
2023-06-21T18:19:30.216Z,3.35
2023-06-21T18:22:11.504Z,1.92
2023-06-21T18:24:39.177Z,2.30
2023-06-21T18:27:05.668Z,1.42
2023-06-21T18:29:32.940Z,1.98
2023-06-21T18:31:59.388Z,2.17
2023-06-21T18:34:25.897Z,1.80
2023-06-21T18:36:52.405Z,3.70
2023-06-21T18:39:18.721Z,3.88
2023-06-21T18:41:45.216Z,2.42
2023-06-21T18:44:12.571Z,7.82
2023-06-21T18:46:39.145Z,8.07
2023-06-21T18:49:05.546Z,8.90
2023-06-21T18:51:32.047Z,9.18
2023-06-21T18:54:00.789Z,5.20
2023-06-21T18:56:27.417Z,5.47
2023-06-21T18:58:56.890Z,2.30
2023-06-21T19:01:24.258Z,7.93
2023-06-21T19:03:50.894Z,8.05
2023-06-21T19:06:17.997Z,1.60
2023-06-21T19:08:45.316Z,2.75
2023-06-21T19:11:11.664Z,1.85
2023-06-21T19:13:39.362Z,2.33
2023-06-21T19:16:05.720Z,2.90
2023-06-21T19:18:32.159Z,3.70
2023-06-21T19:20:58.482Z,2.08
2023-06-21T19:23:24.798Z,3.95
2023-06-21T19:25:51.183Z,2.28
2023-06-21T19:28:18.150Z,3.35
2023-06-21T19:30:44.497Z,2.05
2023-06-21T19:33:10.904Z,2.60
2023-06-21T19:35:37.941Z,1.83
2023-06-21T19:38:04.285Z,3.63
2023-06-21T19:40:31.004Z,9.85
2023-06-21T19:42:57.495Z,3.72
2023-06-21T19:45:24.403Z,4.38
2023-06-21T19:47:50.787Z,5.72
2023-06-21T19:50:17.174Z,3.83
2023-06-21T19:52:43.619Z,4.13
2023-06-21T19:55:10.247Z,6.90
2023-06-21T19:57:36.573Z,2.92
2023-06-21T20:00:05.350Z,4.35
2023-06-21T20:02:31.765Z,7.60
2023-06-21T20:04:58.360Z,3.60
2023-06-21T20:07:24.808Z,5.93
2023-06-21T20:09:51.308Z,2.15
2023-06-21T20:12:18.689Z,3.67
2023-06-21T20:14:45.306Z,3.08
2023-06-21T20:17:11.862Z,4.45
2023-06-21T20:19:38.326Z,2.95
2023-06-21T20:22:05.113Z,2.75
2023-06-21T20:24:32.419Z,2.83
2023-06-21T20:26:58.810Z,4.20
2023-06-21T20:29:25.245Z,3.65
2023-06-21T20:31:51.535Z,4.28
2023-06-21T20:34:18.914Z,2.53
2023-06-21T20:36:45.654Z,3.10
2023-06-21T20:39:15.469Z,6.15
2023-06-21T20:41:42.778Z,4.32
2023-06-21T20:44:09.574Z,5.60
2023-06-21T20:46:35.875Z,6.80
2023-06-21T20:49:05.183Z,9.82
2023-06-21T20:51:31.789Z,4.20
2023-06-21T20:53:59.211Z,4.03
2023-06-21T20:56:26.731Z,5.45
2023-06-21T20:58:53.759Z,5.95
2023-06-21T21:01:20.527Z,3.88
2023-06-21T21:03:46.988Z,6.85
2023-06-21T21:06:13.364Z,6.15
2023-06-21T21:08:39.801Z,4.15
2023-06-21T21:11:06.522Z,5.75
2023-06-21T21:13:34.117Z,9.40
2023-06-21T21:16:00.490Z,5.60
2023-06-21T21:18:26.885Z,6.63
2023-06-21T21:20:53.210Z,5.30
2023-06-21T21:23:21.089Z,5.20
2023-06-21T21:25:47.580Z,6.13
2023-06-21T21:28:14.391Z,7.00
2023-06-21T21:30:40.789Z,7.07
2023-06-21T21:33:07.257Z,5.47
2023-06-21T21:35:34.912Z,7.00
2023-06-21T21:38:01.957Z,9.15
2023-06-21T21:40:28.816Z,7.80
2023-06-21T21:42:56.700Z,9.95
2023-06-21T21:45:23.111Z,12.23
2023-06-21T21:47:49.587Z,12.57
2023-06-21T21:50:16.065Z,6.65
2023-06-21T21:52:45.476Z,11.73
2023-06-21T21:55:11.860Z,9.25
2023-06-21T21:57:38.237Z,6.25
2023-06-21T22:00:05.228Z,10.93
2023-06-21T22:02:31.676Z,5.65
2023-06-21T22:04:58.112Z,7.45
2023-06-21T22:07:24.484Z,13.48
2023-06-21T22:09:50.796Z,7.72
2023-06-21T22:12:17.642Z,13.45
2023-06-21T22:14:43.975Z,7.25
2023-06-21T22:17:10.320Z,6.75
2023-06-21T22:19:37.212Z,6.93
2023-06-21T22:22:03.669Z,7.65
2023-06-21T22:24:30.346Z,6.85
2023-06-21T22:26:56.874Z,11.63
2023-06-21T22:29:24.004Z,10.23
2023-06-21T22:31:50.729Z,8.45
2023-06-21T22:34:17.889Z,7.05
2023-06-21T22:36:44.855Z,8.52
2023-06-21T22:39:11.504Z,8.65
2023-06-21T22:41:38.074Z,8.13
2023-06-21T22:44:04.610Z,9.43
2023-06-21T22:46:31.155Z,8.60
2023-06-21T22:49:05.234Z,7.35
2023-06-21T22:51:32.557Z,7.68
2023-06-21T22:53:59.052Z,8.05
2023-06-21T22:56:25.640Z,10.43
2023-06-21T22:58:52.072Z,10.52
2023-06-21T23:01:19.936Z,10.68
2023-06-21T23:03:46.718Z,8.93
2023-06-21T23:06:13.253Z,11.15
2023-06-21T23:08:40.404Z,8.25
2023-06-21T23:11:08.041Z,8.02
2023-06-21T23:13:34.637Z,7.20
2023-06-21T23:16:01.659Z,10.95
2023-06-21T23:18:33.452Z,7.72
2023-06-21T23:21:01.319Z,8.48
2023-06-21T23:23:30.086Z,13.45
2023-06-21T23:26:00.302Z,10.95
2023-06-21T23:28:29.840Z,11.55
2023-06-21T23:30:58.077Z,11.40
2023-06-21T23:33:34.550Z,11.10
2023-06-21T23:36:04.598Z,10.10
2023-06-21T23:38:31.956Z,11.40
2023-06-21T23:40:58.720Z,10.52
2023-06-21T23:43:26.097Z,10.52
2023-06-21T23:45:52.360Z,10.85
2023-06-21T23:48:18.637Z,11.05
2023-06-21T23:50:46.433Z,8.73
2023-06-21T23:53:12.912Z,9.10
2023-06-21T23:55:41.462Z,9.57
2023-06-21T23:58:07.894Z,9.75
